Time;durP1;ratioP1;P1;durP2;ratioP2;P2;SDS_P1;SDS_P2;PMS_P1;PMS_P2;Temp;Humidity;BMP_temperature;BMP_pressure;BME280_temperature;BME280_humidity;BME280_pressure;Samples;Min_cycle;Max_cycle;Signal;HPM_P1;HPM_P2
2022/05/06 00:01:39;;;;;;;17.60;7.53;;;10.30;99.90;;;;;;5011439;28;20057;-78
2022/05/06 00:04:06;;;;;;;20.00;7.65;;;10.60;99.90;;;;;;5012229;28;20577;-78
2022/05/06 00:06:33;;;;;;;18.15;6.97;;;10.40;99.90;;;;;;4994238;28;20045;-78
2022/05/06 00:08:59;;;;;;;21.63;7.95;;;10.40;99.90;;;;;;4994341;28;20500;-77
2022/05/06 00:11:25;;;;;;;14.52;6.72;;;10.40;99.90;;;;;;4994261;28;20030;-78
2022/05/06 00:13:52;;;;;;;20.58;7.63;;;10.30;99.90;;;;;;5011797;28;20063;-77
2022/05/06 00:16:22;;;;;;;21.05;7.80;;;10.40;99.90;;;;;;4993994;28;20026;-77
2022/05/06 00:18:49;;;;;;;19.70;8.07;;;10.40;99.90;;;;;;4993628;28;20072;-77
2022/05/06 00:21:15;;;;;;;20.02;7.35;;;10.30;99.90;;;;;;4993683;28;20079;-78
2022/05/06 00:23:41;;;;;;;22.33;8.63;;;10.30;99.90;;;;;;5011814;28;20391;-77
2022/05/06 00:26:07;;;;;;;21.27;8.05;;;10.30;99.90;;;;;;5011203;28;20034;-77
2022/05/06 00:28:33;;;;;;;23.70;8.88;;;10.30;99.90;;;;;;5011139;28;20042;-77
2022/05/06 00:31:00;;;;;;;26.30;9.05;;;10.40;99.90;;;;;;5011307;28;20041;-77
2022/05/06 00:33:26;;;;;;;32.17;9.10;;;10.40;99.90;;;;;;5011443;28;20034;-76
2022/05/06 00:35:56;;;;;;;24.17;8.52;;;10.40;99.90;;;;;;5010985;28;20052;-76
2022/05/06 00:38:22;;;;;;;24.05;9.63;;;10.40;99.90;;;;;;4993835;28;20034;-77
2022/05/06 00:40:48;;;;;;;26.35;9.60;;;10.50;99.90;;;;;;5011353;28;20045;-78
2022/05/06 00:43:14;;;;;;;26.63;9.60;;;10.50;99.90;;;;;;5010939;28;20402;-78
2022/05/06 00:45:51;;;;;;;26.20;9.40;;;10.50;99.90;;;;;;5011032;28;20034;-78
2022/05/06 00:48:18;;;;;;;26.40;10.45;;;10.50;99.90;;;;;;5011550;28;20034;-77
2022/05/06 00:50:45;;;;;;;31.48;10.40;;;10.50;99.90;;;;;;5011818;28;20034;-77
2022/05/06 00:53:12;;;;;;;26.35;8.98;;;10.60;99.90;;;;;;5010789;28;20034;-76
2022/05/06 00:55:38;;;;;;;36.00;10.07;;;10.60;99.90;;;;;;5010667;28;20359;-76
2022/05/06 00:58:04;;;;;;;32.33;10.38;;;10.60;99.90;;;;;;5010241;28;20095;-76
2022/05/06 01:00:30;;;;;;;31.92;10.70;;;10.60;99.90;;;;;;5010547;28;20041;-76
2022/05/06 01:02:56;;;;;;;34.42;10.70;;;10.60;99.90;;;;;;5010840;28;20088;-77
2022/05/06 01:05:25;;;;;;;32.78;11.15;;;10.60;99.90;;;;;;4993036;28;20121;-77
2022/05/06 01:07:51;;;;;;;;;;;10.60;99.90;;;;;;5011281;28;20486;-75
2022/05/06 01:10:21;;;;;;;27.17;9.93;;;10.70;99.90;;;;;;5012206;28;19927;-78
2022/05/06 01:12:47;;;;;;;31.15;11.05;;;10.70;99.90;;;;;;5013511;28;20049;-78
2022/05/06 01:15:25;;;;;;;31.58;9.48;;;10.70;99.90;;;;;;4996515;28;20129;-78
2022/05/06 01:17:52;;;;;;;35.88;10.95;;;10.70;99.90;;;;;;5014773;28;20026;-78
2022/05/06 01:20:20;;;;;;;29.75;9.43;;;10.70;99.90;;;;;;5014698;28;20030;-77
2022/05/06 01:22:48;;;;;;;85.90;12.05;;;10.70;99.90;;;;;;5014292;28;20030;-78
2022/05/06 01:25:15;;;;;;;32.08;10.27;;;10.80;99.90;;;;;;5014937;28;20030;-77
2022/05/06 01:27:47;;;;;;;32.50;9.82;;;10.70;99.90;;;;;;4997113;28;20038;-76
2022/05/06 01:30:24;;;;;;;34.30;10.63;;;10.70;99.90;;;;;;4996612;28;20034;-76
2022/05/06 01:32:51;;;;;;;39.13;10.13;;;10.70;99.90;;;;;;5014923;28;20038;-77
2022/05/06 01:35:21;;;;;;;51.10;11.43;;;10.70;99.90;;;;;;5014548;28;20037;-78
2022/05/06 01:37:49;;;;;;;27.17;9.63;;;10.70;99.90;;;;;;5016265;28;20053;-78
2022/05/06 01:40:17;;;;;;;41.00;10.25;;;10.70;99.90;;;;;;5013553;28;20033;-77
2022/05/06 01:42:44;;;;;;;56.30;10.63;;;10.70;99.90;;;;;;5015903;28;20034;-78
2022/05/06 01:45:10;;;;;;;41.45;10.93;;;10.70;99.90;;;;;;4997966;28;20099;-78
2022/05/06 01:47:38;;;;;;;58.50;11.85;;;10.70;99.90;;;;;;5014789;28;20030;-78
2022/05/06 01:50:05;;;;;;;34.38;8.95;;;10.70;99.90;;;;;;5015751;28;20030;-78
2022/05/06 01:52:34;;;;;;;56.65;8.75;;;10.70;99.90;;;;;;5014199;28;20033;-76
2022/05/06 01:55:01;;;;;;;37.28;9.52;;;10.70;99.90;;;;;;5012937;28;20080;-76
2022/05/06 01:57:26;;;;;;;67.25;10.27;;;10.60;99.90;;;;;;5012779;28;20129;-76
2022/05/06 01:59:52;;;;;;;31.88;9.82;;;10.60;99.90;;;;;;5014056;28;20056;-76
2022/05/06 02:02:18;;;;;;;62.38;6.70;;;10.60;99.90;;;;;;5013367;28;20037;-77
2022/05/06 02:07:28;;;;;;;85.55;7.68;;;10.50;99.90;;;;;;5013768;28;20041;-76
2022/05/06 02:09:54;;;;;;;60.22;8.15;;;10.50;99.90;;;;;;5013161;28;20038;-76
2022/05/06 02:12:19;;;;;;;52.58;9.27;;;10.40;99.90;;;;;;5013627;28;20030;-77
2022/05/06 02:14:45;;;;;;;35.17;9.07;;;10.40;99.90;;;;;;5012827;28;20112;-77
2022/05/06 02:17:11;;;;;;;31.33;9.45;;;10.40;99.90;;;;;;4995115;28;20117;-76
2022/05/06 02:19:36;;;;;;;28.55;8.75;;;10.40;99.90;;;;;;5013158;28;20022;-77
2022/05/06 02:22:02;;;;;;;43.00;9.00;;;10.40;99.90;;;;;;5012623;28;20061;-75
2022/05/06 02:24:28;;;;;;;39.83;8.10;;;10.40;99.90;;;;;;5012587;28;20095;-75
2022/05/06 02:26:53;;;;;;;55.30;8.80;;;10.40;99.90;;;;;;5012611;28;20038;-75
2022/05/06 02:29:19;;;;;;;40.10;10.02;;;10.30;99.90;;;;;;5012462;28;20434;-77
2022/05/06 02:34:28;;;;;;;33.72;8.90;;;10.30;99.90;;;;;;5012396;28;20102;-77
2022/05/06 02:36:54;;;;;;;72.38;9.45;;;10.40;99.90;;;;;;4994812;28;20034;-76
2022/05/06 02:39:20;;;;;;;30.65;9.38;;;10.40;99.90;;;;;;5012410;28;20040;-77
2022/05/06 02:41:46;;;;;;;40.17;9.57;;;10.40;99.90;;;;;;5012404;28;20054;-75
2022/05/06 02:44:13;;;;;;;36.15;10.13;;;10.40;99.90;;;;;;5012420;28;20077;-76
2022/05/06 02:46:38;;;;;;;32.55;8.73;;;10.40;99.90;;;;;;5012800;28;20517;-76
2022/05/06 02:49:04;;;;;;;32.67;9.48;;;10.40;99.90;;;;;;5012315;28;20030;-75
2022/05/06 02:51:30;;;;;;;34.28;10.15;;;10.40;99.90;;;;;;5012034;28;20038;-77
2022/05/06 02:53:56;;;;;;;34.22;9.55;;;10.50;99.90;;;;;;5012236;28;20030;-76
2022/05/06 02:56:23;;;;;;;33.60;10.07;;;10.50;99.90;;;;;;4994499;28;20052;-76
2022/05/06 02:58:48;;;;;;;30.77;9.68;;;10.50;99.90;;;;;;4994336;28;20049;-75
2022/05/06 03:01:14;;;;;;;41.85;8.70;;;10.50;99.90;;;;;;5012107;28;20471;-76
2022/05/06 03:03:40;;;;;;;29.58;7.60;;;10.50;99.90;;;;;;5011883;28;20033;-76
2022/05/06 03:06:05;;;;;;;22.75;7.43;;;10.50;99.90;;;;;;5012077;28;20087;-76
2022/05/06 03:08:31;;;;;;;34.33;7.65;;;10.50;99.90;;;;;;5012358;28;20474;-76
2022/05/06 03:10:58;;;;;;;21.58;7.57;;;10.50;99.90;;;;;;4994395;28;20146;-76
2022/05/06 03:13:23;;;;;;;24.65;8.23;;;10.50;99.90;;;;;;5011967;28;20034;-78
2022/05/06 03:15:49;;;;;;;20.20;6.32;;;10.40;99.90;;;;;;5012589;28;20044;-77
2022/05/06 03:18:15;;;;;;;38.55;5.90;;;10.40;99.90;;;;;;4994294;28;20026;-76
2022/05/06 03:20:43;;;;;;;28.60;6.40;;;10.30;99.90;;;;;;5012739;28;20030;-78
2022/05/06 03:23:08;;;;;;;27.92;5.90;;;10.40;99.90;;;;;;4994554;28;20059;-76
2022/05/06 03:25:34;;;;;;;17.83;6.47;;;10.30;99.90;;;;;;5011800;28;20022;-78
2022/05/06 03:28:01;;;;;;;18.40;6.85;;;10.30;99.90;;;;;;5011989;28;20037;-77
2022/05/06 03:30:31;;;;;;;26.27;6.93;;;10.30;99.90;;;;;;5011698;28;20100;-78
2022/05/06 03:32:58;;;;;;;18.48;6.55;;;10.30;99.90;;;;;;4993975;28;20033;-76
2022/05/06 03:35:27;;;;;;;24.88;6.38;;;10.30;99.90;;;;;;5010832;28;20029;-77
2022/05/06 03:37:52;;;;;;;22.02;5.25;;;10.30;99.90;;;;;;5012023;28;20033;-75
2022/05/06 03:40:18;;;;;;;25.63;5.10;;;10.20;99.90;;;;;;5012095;28;20038;-76
2022/05/06 03:42:44;;;;;;;23.05;5.70;;;10.20;99.90;;;;;;4993954;28;20022;-76
2022/05/06 03:45:10;;;;;;;22.95;5.18;;;10.30;99.90;;;;;;4993838;28;20079;-75
2022/05/06 03:47:36;;;;;;;23.95;5.60;;;10.20;99.90;;;;;;5011381;28;20487;-75
2022/05/06 03:52:50;;;;;;;13.77;5.30;;;10.10;99.90;;;;;;5011867;28;20068;-75
2022/05/06 03:55:17;;;;;;;15.65;5.28;;;10.10;99.90;;;;;;5011334;28;20037;-75
2022/05/06 03:57:42;;;;;;;21.35;4.90;;;10.00;99.90;;;;;;5011429;28;20045;-75
2022/05/06 04:00:14;;;;;;;39.67;6.13;;;10.00;99.90;;;;;;5011767;28;20026;-76
2022/05/06 04:02:40;;;;;;;17.42;5.20;;;10.00;99.90;;;;;;5011611;28;20391;-78
2022/05/06 04:05:06;;;;;;;14.13;6.00;;;9.90;99.90;;;;;;5011056;28;20026;-76
2022/05/06 04:07:32;;;;;;;23.90;5.50;;;9.90;99.90;;;;;;5011117;28;20040;-76
2022/05/06 04:09:57;;;;;;;25.75;6.40;;;10.00;99.90;;;;;;4993398;28;20030;-76
2022/05/06 04:12:23;;;;;;;25.65;4.95;;;9.90;99.90;;;;;;5011352;28;20022;-76
2022/05/06 04:14:50;;;;;;;19.42;6.03;;;9.90;99.90;;;;;;5011295;28;20026;-76
2022/05/06 04:17:16;;;;;;;21.65;5.88;;;9.80;99.90;;;;;;5010774;28;20376;-76
2022/05/06 04:23:28;;;;;;;27.40;6.22;;;9.80;99.90;;;;;;4993424;28;20502;-76
2022/05/06 04:25:14;;;;;;;18.85;5.78;;;9.80;99.90;;;;;;5011093;28;20082;-76
2022/05/06 04:27:40;;;;;;;13.93;6.55;;;9.90;99.90;;;;;;5010917;28;20030;-76
2022/05/06 04:30:06;;;;;;;43.90;5.40;;;9.90;99.90;;;;;;4993436;28;20128;-76
2022/05/06 04:32:33;;;;;;;12.23;5.40;;;9.90;99.90;;;;;;5010778;28;20034;-76
2022/05/06 04:35:00;;;;;;;11.25;5.53;;;9.80;99.90;;;;;;4993182;28;20073;-76
2022/05/06 04:37:26;;;;;;;26.33;5.88;;;9.90;99.90;;;;;;5010688;28;20034;-76
2022/05/06 04:39:51;;;;;;;50.83;5.72;;;9.80;99.90;;;;;;5010969;28;20030;-76
2022/05/06 04:42:18;;;;;;;13.63;4.82;;;9.80;99.90;;;;;;5010775;28;20034;-76
2022/05/06 04:44:43;;;;;;;21.90;5.95;;;9.80;99.90;;;;;;5011421;28;20026;-76
2022/05/06 04:47:09;;;;;;;13.77;5.80;;;9.80;99.90;;;;;;4993191;28;20479;-76
2022/05/06 04:49:35;;;;;;;40.40;4.70;;;10.10;99.90;;;;;;5014118;28;20119;-76
2022/05/06 04:52:00;;;;;;;56.97;4.60;;;9.90;99.90;;;;;;5014244;28;20530;-76
2022/05/06 04:54:26;;;;;;;24.98;4.65;;;9.80;99.90;;;;;;5014462;28;20444;-76
2022/05/06 04:56:53;;;;;;;17.95;4.78;;;9.80;99.90;;;;;;4996465;28;20030;-76
2022/05/06 04:59:22;;;;;;;16.27;5.55;;;9.80;99.90;;;;;;5014248;28;20457;-76
2022/05/06 05:01:48;;;;;;;25.35;4.38;;;9.80;99.90;;;;;;5014161;28;20040;-76
2022/05/06 05:04:13;;;;;;;23.00;4.28;;;9.90;99.90;;;;;;4996385;28;20029;-76
2022/05/06 05:06:39;;;;;;;20.80;4.53;;;9.90;99.90;;;;;;5013837;28;20030;-76
2022/05/06 05:09:05;;;;;;;10.50;4.40;;;10.00;99.90;;;;;;4996588;28;20113;-76
2022/05/06 05:11:33;;;;;;;8.70;4.45;;;10.00;99.90;;;;;;5013846;28;20105;-76
2022/05/06 05:14:00;;;;;;;10.88;3.95;;;10.10;99.90;;;;;;5013935;28;20137;-76
2022/05/06 05:16:27;;;;;;;13.13;3.80;;;10.10;99.90;;;;;;5013996;28;20037;-76
2022/05/06 05:18:53;;;;;;;14.48;3.38;;;10.20;99.90;;;;;;4996078;28;20049;-76
2022/05/06 05:21:19;;;;;;;28.83;3.25;;;10.20;99.90;;;;;;5013898;28;20113;-76
2022/05/06 05:23:45;;;;;;;13.10;4.25;;;10.20;99.90;;;;;;5013320;28;20125;-77
2022/05/06 05:26:11;;;;;;;9.30;4.50;;;10.20;99.90;;;;;;4995749;28;20030;-76
2022/05/06 05:28:36;;;;;;;9.10;3.67;;;10.30;99.90;;;;;;5013447;28;20065;-76
2022/05/06 05:31:02;;;;;;;22.35;3.55;;;10.30;99.90;;;;;;5013526;28;20068;-75
2022/05/06 05:33:28;;;;;;;7.65;3.40;;;10.30;99.90;;;;;;5013848;28;20150;-76
2022/05/06 05:35:54;;;;;;;7.93;3.80;;;10.40;99.90;;;;;;5013119;28;20399;-76
2022/05/06 05:38:19;;;;;;;7.50;3.30;;;10.40;99.90;;;;;;5013381;28;20037;-77
2022/05/06 05:40:45;;;;;;;12.02;3.42;;;10.50;99.90;;;;;;5013508;28;20034;-76
2022/05/06 05:48:19;;;;;;;7.97;3.25;;;10.50;99.90;;;;;;4995628;28;20459;-76
2022/05/06 05:48:41;;;;;;;5.43;3.00;;;10.60;99.90;;;;;;5012933;28;20033;-76
2022/05/06 05:51:07;;;;;;;14.95;3.00;;;10.60;99.90;;;;;;5012975;28;20463;-76
2022/05/06 05:53:33;;;;;;;8.93;3.08;;;10.70;99.90;;;;;;4995674;28;20091;-76
2022/05/06 05:55:58;;;;;;;4.90;2.58;;;10.70;99.90;;;;;;5013505;28;20030;-77
2022/05/06 05:58:24;;;;;;;5.28;2.42;;;10.60;99.90;;;;;;4994826;28;20486;-76
2022/05/06 06:00:50;;;;;;;9.60;2.42;;;10.70;99.90;;;;;;5012845;28;20034;-76
2022/05/06 06:03:15;;;;;;;4.57;2.70;;;10.70;99.90;;;;;;5012874;28;20033;-76
2022/05/06 06:05:41;;;;;;;6.82;3.47;;;10.70;99.90;;;;;;4995355;28;20479;-76
2022/05/06 06:08:07;;;;;;;15.40;3.50;;;10.70;99.90;;;;;;4995190;28;20034;-76
2022/05/06 06:10:33;;;;;;;8.98;3.10;;;10.90;99.90;;;;;;5012849;28;20030;-76
2022/05/06 06:13:01;;;;;;;9.93;3.70;;;10.90;99.90;;;;;;5012915;28;20042;-76
2022/05/06 06:15:26;;;;;;;5.72;3.40;;;11.00;99.90;;;;;;5012561;28;20034;-77
2022/05/06 06:17:52;;;;;;;8.15;3.67;;;11.10;99.90;;;;;;5012702;28;20082;-76
2022/05/06 06:20:18;;;;;;;8.68;3.70;;;11.10;99.90;;;;;;5012810;28;20042;-76
2022/05/06 06:22:44;;;;;;;6.07;2.95;;;11.10;99.90;;;;;;5012917;28;20037;-76
2022/05/06 06:25:09;;;;;;;6.03;3.50;;;11.20;99.90;;;;;;4995025;28;20109;-76
2022/05/06 06:27:35;;;;;;;6.80;3.17;;;11.30;99.90;;;;;;5012611;28;20025;-75
2022/05/06 06:30:05;;;;;;;6.72;2.85;;;11.30;99.90;;;;;;5012562;28;20026;-76
2022/05/06 06:32:30;;;;;;;6.03;2.78;;;11.40;99.90;;;;;;4994874;28;20045;-76
2022/05/06 06:34:56;;;;;;;6.38;3.38;;;11.40;99.90;;;;;;4994837;28;20042;-76
2022/05/06 06:37:22;;;;;;;6.93;3.17;;;11.50;99.90;;;;;;5012426;28;20030;-76
2022/05/06 06:39:48;;;;;;;5.70;2.95;;;11.50;99.90;;;;;;5012398;28;20022;-76
2022/05/06 06:42:14;;;;;;;9.23;3.55;;;11.50;99.90;;;;;;5012216;28;20490;-76
2022/05/06 06:44:39;;;;;;;5.97;3.17;;;11.60;99.90;;;;;;5012766;28;20065;-76
2022/05/06 06:47:09;;;;;;;6.95;3.20;;;11.60;99.90;;;;;;4994605;28;20063;-76
2022/05/06 06:49:35;;;;;;;6.10;3.40;;;11.70;99.90;;;;;;5012136;28;20042;-76
2022/05/06 06:52:01;;;;;;;8.57;3.80;;;11.80;99.90;;;;;;5012158;28;20065;-76
2022/05/06 06:54:27;;;;;;;11.38;4.07;;;11.90;99.90;;;;;;5012254;28;20073;-77
2022/05/06 06:56:52;;;;;;;11.15;3.83;;;11.90;99.90;;;;;;5012168;28;20479;-76
2022/05/06 06:59:18;;;;;;;8.15;3.80;;;11.90;99.90;;;;;;4994595;28;20030;-76
2022/05/06 07:01:43;;;;;;;6.72;3.45;;;12.00;99.90;;;;;;4995168;28;20042;-76
2022/05/06 07:04:09;;;;;;;7.95;3.28;;;12.00;99.90;;;;;;5011848;28;20036;-76
2022/05/06 07:12:04;;;;;;;6.65;3.42;;;12.20;99.90;;;;;;5011854;28;20391;-76
2022/05/06 07:14:29;;;;;;;10.63;4.07;;;12.20;99.90;;;;;;5012286;28;20038;-78
2022/05/06 07:16:55;;;;;;;7.85;4.43;;;12.20;99.90;;;;;;5013410;28;20368;-79
2022/05/06 07:19:23;;;;;;;9.23;3.88;;;12.40;99.90;;;;;;4994961;28;20033;-78
2022/05/06 07:21:52;;;;;;;9.95;5.10;;;12.40;99.90;;;;;;4995168;28;20399;-77
2022/05/06 07:24:19;;;;;;;6.60;3.70;;;12.50;99.90;;;;;;5012816;28;20440;-78
2022/05/06 07:26:45;;;;;;;6.72;3.75;;;12.80;99.90;;;;;;5012478;28;20037;-77
2022/05/06 07:29:11;;;;;;;8.15;4.47;;;12.90;99.90;;;;;;5012322;28;20132;-78
2022/05/06 07:31:37;;;;;;;7.90;4.35;;;13.10;99.90;;;;;;5012508;28;20041;-77
2022/05/06 07:34:03;;;;;;;9.55;4.57;;;13.10;99.90;;;;;;5012129;28;20026;-77
2022/05/06 07:36:28;;;;;;;10.18;4.60;;;13.10;99.90;;;;;;5012430;28;20086;-77
2022/05/06 07:38:54;;;;;;;9.45;5.30;;;13.20;99.90;;;;;;5012555;28;20037;-78
2022/05/06 07:41:20;;;;;;;7.43;3.90;;;13.30;99.90;;;;;;4994554;28;20487;-77
2022/05/06 07:43:45;;;;;;;7.43;3.88;;;13.30;99.90;;;;;;5012092;28;20061;-77
2022/05/06 07:46:11;;;;;;;8.98;3.92;;;13.40;99.90;;;;;;4994706;28;20121;-77
2022/05/06 07:48:37;;;;;;;8.50;4.60;;;13.50;99.90;;;;;;4994925;28;20030;-78
2022/05/06 07:51:03;;;;;;;7.80;3.88;;;13.70;99.90;;;;;;5012781;28;20034;-78
2022/05/06 07:53:29;;;;;;;9.23;4.63;;;13.80;99.90;;;;;;5012145;28;20034;-78
2022/05/06 07:55:55;;;;;;;7.95;4.57;;;13.90;99.90;;;;;;4994345;28;20033;-77
2022/05/06 07:58:20;;;;;;;8.27;4.70;;;13.90;99.90;;;;;;5012032;28;20030;-78
2022/05/06 08:00:46;;;;;;;9.25;4.57;;;13.90;99.90;;;;;;5012093;28;20036;-78
2022/05/06 08:05:59;;;;;;;9.40;4.53;;;14.00;99.90;;;;;;5012986;28;20029;-80
2022/05/06 08:08:26;;;;;;;12.80;4.88;;;14.10;99.90;;;;;;4995400;28;20026;-78
2022/05/06 08:10:52;;;;;;;10.85;4.53;;;14.30;99.90;;;;;;5012919;28;20084;-78
2022/05/06 08:13:21;;;;;;;9.43;4.45;;;14.30;99.90;;;;;;4994982;28;20034;-78
2022/05/06 08:15:48;;;;;;;9.98;5.03;;;14.10;99.90;;;;;;5012891;28;20034;-78
2022/05/06 08:18:14;;;;;;;7.55;3.70;;;14.00;99.90;;;;;;5012666;28;20441;-78
2022/05/06 08:20:41;;;;;;;8.70;4.20;;;14.30;99.90;;;;;;4994604;28;20034;-78
2022/05/06 08:23:07;;;;;;;9.30;4.63;;;14.60;99.90;;;;;;4995308;28;20030;-78
2022/05/06 08:25:33;;;;;;;8.13;3.90;;;15.00;99.90;;;;;;5012688;28;20026;-78
2022/05/06 08:27:58;;;;;;;7.15;3.78;;;15.40;99.90;;;;;;4994735;28;20501;-78
2022/05/06 08:30:24;;;;;;;7.38;4.22;;;15.40;99.90;;;;;;5012657;28;20037;-77
2022/05/06 08:32:51;;;;;;;6.85;3.88;;;15.60;99.90;;;;;;4994759;28;20038;-78
2022/05/06 08:35:17;;;;;;;8.25;4.03;;;15.60;99.90;;;;;;5012182;28;20088;-78
2022/05/06 08:37:45;;;;;;;7.32;3.63;;;15.70;99.90;;;;;;5012432;28;20497;-77
2022/05/06 08:40:25;;;;;;;6.53;3.37;;;15.90;99.90;;;;;;5011772;28;20405;-78
2022/05/06 08:42:51;;;;;;;7.45;3.53;;;15.90;99.90;;;;;;5011552;28;20034;-78
2022/05/06 08:50:52;;;;;;;7.53;4.13;;;16.20;99.90;;;;;;5011875;28;20037;-78
2022/05/06 08:53:20;;;;;;;7.45;3.58;;;16.40;99.90;;;;;;5011481;28;20034;-73
2022/05/06 08:55:46;;;;;;;8.15;3.95;;;16.50;99.90;;;;;;5010315;28;20054;-72
2022/05/06 08:58:11;;;;;;;7.15;3.88;;;16.60;99.90;;;;;;5039830;23;20057;-75
2022/05/06 09:00:37;;;;;;;7.85;3.72;;;16.70;99.90;;;;;;5010746;28;20030;-75
2022/05/06 09:03:03;;;;;;;9.75;3.67;;;16.70;99.90;;;;;;4992823;28;20069;-75
2022/05/06 09:05:28;;;;;;;7.80;4.03;;;16.60;99.90;;;;;;4992489;28;20030;-76
2022/05/06 09:07:54;;;;;;;7.03;3.63;;;16.60;99.90;;;;;;5010247;28;20034;-74
2022/05/06 09:10:20;;;;;;;5.55;3.08;;;16.70;99.90;;;;;;5010069;28;20126;-74
2022/05/06 09:12:46;;;;;;;7.47;3.63;;;16.50;99.90;;;;;;5009320;28;20042;-74
2022/05/06 09:18:01;;;;;;;;;;;16.80;99.90;;;;;;5009447;28;20061;-74
2022/05/06 09:20:27;;;;;;;6.53;3.38;;;16.90;99.90;;;;;;4991719;28;20312;-74
2022/05/06 09:22:54;;;;;;;5.68;2.75;;;17.00;99.90;;;;;;5009333;28;20026;-74
2022/05/06 09:25:40;;;;;;;8.43;3.55;;;17.00;99.90;;;;;;5009290;28;20034;-74
2022/05/06 09:28:09;;;;;;;5.63;3.03;;;17.20;99.90;;;;;;4992365;28;20087;-74
2022/05/06 09:30:37;;;;;;;6.03;3.25;;;17.40;99.90;;;;;;5010075;28;20143;-74
2022/05/06 09:33:03;;;;;;;7.95;3.67;;;17.60;99.90;;;;;;4992287;28;20030;-74
2022/05/06 09:35:32;;;;;;;9.07;3.05;;;17.60;99.90;;;;;;4995740;28;20026;-74
2022/05/06 09:38:03;;;;;;;7.78;2.88;;;17.50;99.90;;;;;;5013083;28;20073;-74
2022/05/06 09:40:30;;;;;;;5.50;2.83;;;17.50;99.90;;;;;;5013061;28;20030;-74
2022/05/06 09:42:58;;;;;;;4.90;2.08;;;17.60;99.90;;;;;;5012989;28;20053;-74
2022/05/06 09:45:38;;;;;;;7.15;3.40;;;17.90;99.90;;;;;;5012872;28;20042;-74
2022/05/06 09:48:04;;;;;;;8.50;3.97;;;17.90;99.90;;;;;;4995617;28;20386;-75
2022/05/06 09:50:36;;;;;;;6.18;3.30;;;18.00;99.90;;;;;;5013489;28;20030;-74
2022/05/06 09:53:03;;;;;;;6.70;3.50;;;18.10;99.90;;;;;;5012842;28;20033;-74
2022/05/06 09:55:29;;;;;;;5.85;3.05;;;17.90;99.90;;;;;;5012654;28;20049;-75
2022/05/06 09:57:59;;;;;;;10.20;3.10;;;18.00;99.90;;;;;;4995174;28;20034;-75
2022/05/06 10:00:27;;;;;;;6.32;2.67;;;18.10;99.90;;;;;;5012649;28;20033;-75
2022/05/06 10:02:52;;;;;;;4.93;2.55;;;18.80;99.90;;;;;;5013423;28;20109;-75
2022/05/06 10:05:18;;;;;;;8.35;3.05;;;18.40;99.90;;;;;;5012666;28;20073;-74
2022/05/06 10:07:44;;;;;;;7.15;2.70;;;18.70;99.90;;;;;;4995292;28;20034;-75
2022/05/06 10:10:18;;;;;;;6.32;3.00;;;18.90;99.90;;;;;;4995256;28;20034;-75
2022/05/06 10:12:52;;;;;;;5.63;3.05;;;19.00;99.90;;;;;;4995191;28;20079;-76
2022/05/06 10:15:23;;;;;;;4.25;2.30;;;19.50;99.90;;;;;;4994990;28;20038;-75
2022/05/06 10:18:03;;;;;;;5.22;3.00;;;19.20;99.70;;;;;;5013271;28;20034;-76
2022/05/06 10:20:38;;;;;;;7.53;2.83;;;19.30;99.90;;;;;;4995053;28;20033;-76
2022/05/06 10:23:09;;;;;;;6.72;2.85;;;19.40;99.90;;;;;;4994922;28;20049;-76
2022/05/06 10:25:41;;;;;;;6.20;2.50;;;19.60;99.30;;;;;;4994847;28;20084;-76
2022/05/06 10:34:16;;;;;;;5.82;2.75;;;19.70;95.00;;;;;;5012321;28;20049;-75
2022/05/06 10:36:50;;;;;;;5.15;2.78;;;19.70;94.60;;;;;;5012226;28;20034;-75
2022/05/06 10:39:36;;;;;;;6.15;3.10;;;19.60;97.40;;;;;;4995192;28;20075;-74
2022/05/06 10:42:09;;;;;;;5.95;3.47;;;19.80;93.00;;;;;;4994793;28;20030;-74
2022/05/06 10:44:39;;;;;;;6.97;3.13;;;19.40;93.80;;;;;;5012285;28;20060;-74
2022/05/06 10:47:11;;;;;;;6.35;3.03;;;19.60;97.20;;;;;;5012854;28;20042;-75
2022/05/06 10:49:39;;;;;;;8.18;3.22;;;19.90;97.10;;;;;;5012465;28;20436;-74
2022/05/06 10:52:20;;;;;;;4.93;2.88;;;20.20;94.50;;;;;;4994656;28;20506;-75
2022/05/06 10:54:52;;;;;;;6.22;2.75;;;20.60;94.10;;;;;;4994410;28;20038;-75
2022/05/06 10:57:22;;;;;;;6.65;2.55;;;20.80;90.50;;;;;;5012198;28;20444;-75
2022/05/06 10:59:52;;;;;;;5.18;2.60;;;20.90;88.40;;;;;;5012032;28;20486;-75
2022/05/06 11:02:22;;;;;;;4.68;2.60;;;20.80;82.60;;;;;;5012167;28;20041;-75
2022/05/06 11:04:54;;;;;;;6.78;2.28;;;20.90;80.30;;;;;;5011788;28;20094;-75
2022/05/06 11:07:21;;;;;;;5.22;2.58;;;21.10;85.40;;;;;;5012213;28;20045;-75
2022/05/06 11:09:47;;;;;;;5.85;2.75;;;21.40;83.50;;;;;;5011720;28;20510;-74
2022/05/06 11:12:33;;;;;;;7.10;3.35;;;21.80;83.00;;;;;;5011779;28;20041;-75
2022/05/06 11:14:59;;;;;;;6.95;2.22;;;22.10;78.50;;;;;;4994266;28;20042;-75
2022/05/06 11:17:25;;;;;;;8.02;3.45;;;22.10;73.60;;;;;;5011841;28;20034;-75
2022/05/06 11:19:51;;;;;;;5.57;3.40;;;22.30;70.30;;;;;;5011492;28;20038;-75
2022/05/06 11:22:17;;;;;;;10.52;4.80;;;22.30;75.20;;;;;;4994015;28;20068;-75
2022/05/06 11:24:46;;;;;;;9.35;4.75;;;22.40;74.70;;;;;;5011928;28;20034;-75
2022/05/06 11:27:12;;;;;;;9.43;5.00;;;22.50;76.10;;;;;;4993934;28;20037;-76
2022/05/06 11:29:59;;;;;;;12.20;5.15;;;22.60;74.70;;;;;;4993651;28;20494;-76
2022/05/06 11:32:29;;;;;;;11.30;5.57;;;22.90;71.70;;;;;;4994738;28;20030;-78
2022/05/06 11:34:57;;;;;;;10.98;5.63;;;23.10;71.10;;;;;;5011596;28;20529;-76
2022/05/06 11:37:28;;;;;;;;;;;23.20;72.00;;;;;;5011869;28;20059;-76
2022/05/06 11:42:38;;;;;;;9.05;4.28;;;23.20;67.90;;;;;;5012401;28;20139;-75
2022/05/06 11:47:48;;;;;;;13.63;5.47;;;22.80;72.00;;;;;;5011513;28;20049;-76
2022/05/06 11:50:14;;;;;;;9.27;4.68;;;22.70;67.40;;;;;;5011273;28;20034;-77
2022/05/06 11:52:40;;;;;;;11.23;5.38;;;22.40;69.60;;;;;;4993585;28;20041;-75
2022/05/06 11:55:09;;;;;;;13.98;6.10;;;22.50;71.30;;;;;;4993537;28;20036;-75
2022/05/06 11:57:39;;;;;;;12.73;6.18;;;22.80;71.30;;;;;;5010370;28;20113;-76
2022/05/06 12:00:06;;;;;;;13.75;6.22;;;23.20;70.00;;;;;;5011023;28;20034;-77
2022/05/06 12:02:33;;;;;;;11.02;6.15;;;23.60;67.00;;;;;;5011461;28;20037;-76
2022/05/06 12:04:59;;;;;;;13.15;6.47;;;24.30;64.40;;;;;;5011187;28;20065;-76
2022/05/06 12:08:00;;;;;;;11.88;5.30;;;24.20;63.70;;;;;;5010886;28;20069;-73
2022/05/06 12:10:33;;;;;;;16.48;5.90;;;24.40;66.10;;;;;;5031572;28;20037;-73
2022/05/06 12:13:03;;;;;;;9.13;5.90;;;24.30;65.00;;;;;;5014942;28;20144;-74
2022/05/06 12:15:37;;;;;;;13.35;5.90;;;24.10;63.40;;;;;;5010697;28;20030;-73
2022/05/06 12:18:21;;;;;;;13.57;6.85;;;23.90;64.90;;;;;;5010956;28;20034;-75
2022/05/06 12:20:49;;;;;;;13.82;6.40;;;23.60;66.30;;;;;;5011117;28;20390;-74
2022/05/06 12:23:15;;;;;;;11.32;5.68;;;23.40;68.70;;;;;;4992812;28;20095;-75
2022/05/06 12:25:42;;;;;;;11.15;6.15;;;23.70;70.30;;;;;;5011117;28;20487;-76
2022/05/06 12:28:20;;;;;;;16.25;5.55;;;23.80;65.00;;;;;;5010573;28;20446;-77
2022/05/06 12:31:02;;;;;;;13.02;6.05;;;23.80;67.70;;;;;;5010675;28;20120;-77
2022/05/06 12:33:36;;;;;;;14.05;5.80;;;23.40;66.20;;;;;;4992896;28;20041;-77
2022/05/06 12:36:04;;;;;;;10.10;5.72;;;23.30;70.50;;;;;;4992679;28;20042;-77
2022/05/06 12:38:46;;;;;;;9.15;4.68;;;23.70;72.60;;;;;;5010944;28;20026;-75
2022/05/06 12:41:28;;;;;;;8.63;4.57;;;24.10;67.00;;;;;;5010708;28;20026;-76
2022/05/06 12:43:58;;;;;;;12.60;6.35;;;24.10;62.90;;;;;;5010896;28;20038;-75
2022/05/06 12:46:36;;;;;;;10.10;5.38;;;23.70;62.70;;;;;;4992851;28;20409;-75
2022/05/06 12:51:47;;;;;;;10.27;5.60;;;23.80;66.70;;;;;;5010700;28;20159;-75
2022/05/06 12:54:13;;;;;;;10.68;5.60;;;23.90;65.50;;;;;;5010283;28;20037;-75
2022/05/06 12:56:39;;;;;;;9.98;5.15;;;24.00;63.70;;;;;;5010394;28;20409;-75
2022/05/06 12:59:07;;;;;;;8.82;4.90;;;24.30;65.00;;;;;;4992870;28;20038;-75
2022/05/06 13:01:33;;;;;;;8.35;4.28;;;24.70;64.40;;;;;;4993330;28;20042;-75
2022/05/06 13:03:59;;;;;;;11.40;6.10;;;24.70;61.60;;;;;;5010766;28;20034;-75
2022/05/06 13:06:25;;;;;;;12.13;6.00;;;24.70;61.30;;;;;;5010535;28;20034;-76
2022/05/06 13:08:51;;;;;;;10.13;5.35;;;24.40;61.30;;;;;;4993675;28;20041;-76
2022/05/06 13:11:17;;;;;;;10.90;5.43;;;24.30;62.70;;;;;;5014324;28;20382;-76
2022/05/06 13:13:43;;;;;;;10.80;4.93;;;24.50;66.90;;;;;;5013300;28;20042;-74
2022/05/06 13:16:09;;;;;;;9.93;5.68;;;24.50;65.10;;;;;;4996036;28;20125;-74
2022/05/06 13:18:36;;;;;;;11.63;5.93;;;24.50;66.20;;;;;;5013796;28;20049;-74
2022/05/06 13:21:04;;;;;;;10.50;5.32;;;24.30;65.30;;;;;;4996030;28;20078;-74
2022/05/06 13:23:30;;;;;;;;;;;24.40;66.80;;;;;;5014231;28;20038;-74
2022/05/06 13:25:57;;;;;;;10.93;5.53;;;24.50;62.70;;;;;;5013479;28;19928;-74
2022/05/06 13:28:23;;;;;;;11.55;6.50;;;24.50;65.10;;;;;;5013314;28;20038;-74
2022/05/06 13:30:49;;;;;;;11.30;5.80;;;24.70;64.00;;;;;;5013221;28;20044;-74